sensor_id;sensor_type;location;lat;lon;timestamp;P1;durP1;ratioP1;P2;durP2;ratioP2
572;SDS011;271;51.114;13.780;2023-04-25T00:00:07;15.67;;;2.53;;
572;SDS011;271;51.114;13.780;2023-04-25T00:02:56;16.80;;;2.67;;
572;SDS011;271;51.114;13.780;2023-04-25T00:05:44;16.27;;;2.70;;
572;SDS011;271;51.114;13.780;2023-04-25T00:08:33;16.57;;;3.10;;
572;SDS011;271;51.114;13.780;2023-04-25T00:11:21;17.00;;;3.30;;
572;SDS011;271;51.114;13.780;2023-04-25T00:14:09;16.00;;;2.30;;
572;SDS011;271;51.114;13.780;2023-04-25T00:16:56;17.43;;;2.90;;
572;SDS011;271;51.114;13.780;2023-04-25T00:19:44;16.67;;;2.57;;
572;SDS011;271;51.114;13.780;2023-04-25T00:22:33;16.40;;;2.72;;
572;SDS011;271;51.114;13.780;2023-04-25T00:25:24;16.67;;;3.50;;
572;SDS011;271;51.114;13.780;2023-04-25T00:28:12;16.47;;;2.97;;
572;SDS011;271;51.114;13.780;2023-04-25T00:31:00;16.80;;;3.03;;
572;SDS011;271;51.114;13.780;2023-04-25T00:33:48;18.90;;;3.53;;
572;SDS011;271;51.114;13.780;2023-04-25T00:36:35;16.50;;;3.43;;
572;SDS011;271;51.114;13.780;2023-04-25T00:39:23;16.60;;;3.13;;
572;SDS011;271;51.114;13.780;2023-04-25T00:42:12;18.80;;;2.77;;
572;SDS011;271;51.114;13.780;2023-04-25T00:45:01;17.53;;;2.90;;
572;SDS011;271;51.114;13.780;2023-04-25T00:47:50;20.33;;;3.40;;
572;SDS011;271;51.114;13.780;2023-04-25T00:50:38;21.60;;;3.90;;
572;SDS011;271;51.114;13.780;2023-04-25T00:53:26;16.17;;;2.93;;
572;SDS011;271;51.114;13.780;2023-04-25T00:56:15;17.20;;;3.27;;
572;SDS011;271;51.114;13.780;2023-04-25T00:59:04;17.47;;;2.90;;
572;SDS011;271;51.114;13.780;2023-04-25T01:01:52;17.33;;;3.00;;
572;SDS011;271;51.114;13.780;2023-04-25T01:04:40;22.08;;;2.90;;
572;SDS011;271;51.114;13.780;2023-04-25T01:07:28;15.95;;;2.83;;
572;SDS011;271;51.114;13.780;2023-04-25T01:10:16;16.00;;;2.97;;
572;SDS011;271;51.114;13.780;2023-04-25T01:13:04;16.73;;;3.22;;
572;SDS011;271;51.114;13.780;2023-04-25T01:15:54;17.33;;;3.10;;
572;SDS011;271;51.114;13.780;2023-04-25T01:18:42;16.30;;;3.30;;
572;SDS011;271;51.114;13.780;2023-04-25T01:21:31;18.10;;;4.27;;
572;SDS011;271;51.114;13.780;2023-04-25T01:24:19;17.35;;;2.95;;
572;SDS011;271;51.114;13.780;2023-04-25T01:27:07;21.58;;;3.78;;
572;SDS011;271;51.114;13.780;2023-04-25T01:29:56;18.13;;;3.90;;
572;SDS011;271;51.114;13.780;2023-04-25T01:32:44;18.15;;;4.57;;
572;SDS011;271;51.114;13.780;2023-04-25T01:35:32;17.10;;;3.70;;
572;SDS011;271;51.114;13.780;2023-04-25T01:38:21;16.97;;;3.90;;
572;SDS011;271;51.114;13.780;2023-04-25T01:41:09;18.08;;;4.63;;
572;SDS011;271;51.114;13.780;2023-04-25T01:43:57;18.25;;;4.10;;
572;SDS011;271;51.114;13.780;2023-04-25T01:46:45;17.35;;;3.80;;
572;SDS011;271;51.114;13.780;2023-04-25T01:49:32;19.90;;;5.05;;
572;SDS011;271;51.114;13.780;2023-04-25T01:52:20;20.20;;;4.10;;
572;SDS011;271;51.114;13.780;2023-04-25T01:55:10;19.02;;;4.35;;
572;SDS011;271;51.114;13.780;2023-04-25T01:57:58;20.23;;;5.18;;
572;SDS011;271;51.114;13.780;2023-04-25T02:00:46;18.23;;;5.03;;
572;SDS011;271;51.114;13.780;2023-04-25T02:03:34;19.05;;;5.05;;
572;SDS011;271;51.114;13.780;2023-04-25T02:06:21;19.90;;;4.85;;
572;SDS011;271;51.114;13.780;2023-04-25T02:09:09;18.50;;;5.20;;
572;SDS011;271;51.114;13.780;2023-04-25T02:11:58;18.40;;;4.30;;
572;SDS011;271;51.114;13.780;2023-04-25T02:14:46;19.58;;;5.05;;
572;SDS011;271;51.114;13.780;2023-04-25T02:17:34;20.38;;;5.03;;
572;SDS011;271;51.114;13.780;2023-04-25T02:20:22;17.48;;;4.45;;
572;SDS011;271;51.114;13.780;2023-04-25T02:23:10;19.45;;;4.82;;
572;SDS011;271;51.114;13.780;2023-04-25T02:25:58;19.27;;;5.50;;
572;SDS011;271;51.114;13.780;2023-04-25T02:28:47;19.33;;;4.50;;
572;SDS011;271;51.114;13.780;2023-04-25T02:31:35;19.33;;;5.32;;
572;SDS011;271;51.114;13.780;2023-04-25T02:34:23;19.35;;;5.40;;
572;SDS011;271;51.114;13.780;2023-04-25T02:37:10;20.40;;;5.25;;
572;SDS011;271;51.114;13.780;2023-04-25T02:39:58;18.05;;;4.35;;
572;SDS011;271;51.114;13.780;2023-04-25T02:42:46;18.30;;;4.60;;
572;SDS011;271;51.114;13.780;2023-04-25T02:45:35;21.63;;;5.45;;
572;SDS011;271;51.114;13.780;2023-04-25T02:48:23;19.13;;;5.47;;
572;SDS011;271;51.114;13.780;2023-04-25T02:51:11;24.40;;;6.20;;
572;SDS011;271;51.114;13.780;2023-04-25T02:53:58;20.75;;;5.78;;
572;SDS011;271;51.114;13.780;2023-04-25T02:56:46;19.20;;;5.55;;
572;SDS011;271;51.114;13.780;2023-04-25T02:59:34;21.05;;;4.97;;
572;SDS011;271;51.114;13.780;2023-04-25T03:02:23;19.80;;;5.60;;
572;SDS011;271;51.114;13.780;2023-04-25T03:05:11;18.88;;;5.68;;
572;SDS011;271;51.114;13.780;2023-04-25T03:07:58;24.38;;;5.78;;
572;SDS011;271;51.114;13.780;2023-04-25T03:10:46;20.65;;;5.97;;
572;SDS011;271;51.114;13.780;2023-04-25T03:13:36;18.80;;;5.07;;
572;SDS011;271;51.114;13.780;2023-04-25T03:16:24;20.27;;;5.75;;
572;SDS011;271;51.114;13.780;2023-04-25T03:19:13;24.33;;;5.30;;
572;SDS011;271;51.114;13.780;2023-04-25T03:22:01;19.02;;;5.53;;
572;SDS011;271;51.114;13.780;2023-04-25T03:24:49;19.15;;;5.25;;
572;SDS011;271;51.114;13.780;2023-04-25T03:27:37;20.45;;;5.60;;
572;SDS011;271;51.114;13.780;2023-04-25T03:30:24;19.73;;;5.20;;
572;SDS011;271;51.114;13.780;2023-04-25T03:33:12;18.83;;;5.28;;
572;SDS011;271;51.114;13.780;2023-04-25T03:36:01;20.50;;;6.10;;
572;SDS011;271;51.114;13.780;2023-04-25T03:38:49;21.83;;;6.53;;
572;SDS011;271;51.114;13.780;2023-04-25T03:41:36;18.95;;;5.57;;
572;SDS011;271;51.114;13.780;2023-04-25T03:44:24;22.92;;;6.72;;
572;SDS011;271;51.114;13.780;2023-04-25T03:47:12;20.38;;;5.70;;
572;SDS011;271;51.114;13.780;2023-04-25T03:49:59;20.83;;;5.63;;
572;SDS011;271;51.114;13.780;2023-04-25T03:52:50;21.45;;;6.05;;
572;SDS011;271;51.114;13.780;2023-04-25T03:55:37;19.90;;;5.70;;
572;SDS011;271;51.114;13.780;2023-04-25T03:58:25;19.67;;;6.85;;
572;SDS011;271;51.114;13.780;2023-04-25T04:01:13;23.10;;;5.40;;
572;SDS011;271;51.114;13.780;2023-04-25T04:04:01;20.42;;;6.05;;
572;SDS011;271;51.114;13.780;2023-04-25T04:06:48;19.98;;;6.03;;
572;SDS011;271;51.114;13.780;2023-04-25T04:09:38;23.48;;;6.80;;
572;SDS011;271;51.114;13.780;2023-04-25T04:12:25;21.60;;;7.15;;
572;SDS011;271;51.114;13.780;2023-04-25T04:15:13;19.52;;;6.10;;
572;SDS011;271;51.114;13.780;2023-04-25T04:18:00;20.88;;;6.20;;
572;SDS011;271;51.114;13.780;2023-04-25T04:20:48;20.98;;;6.53;;
572;SDS011;271;51.114;13.780;2023-04-25T04:23:36;19.88;;;6.25;;
572;SDS011;271;51.114;13.780;2023-04-25T04:26:25;20.98;;;6.80;;
572;SDS011;271;51.114;13.780;2023-04-25T04:29:13;19.65;;;6.28;;
572;SDS011;271;51.114;13.780;2023-04-25T04:32:06;20.25;;;7.15;;
572;SDS011;271;51.114;13.780;2023-04-25T04:34:55;20.90;;;7.47;;
572;SDS011;271;51.114;13.780;2023-04-25T04:37:43;20.63;;;6.32;;
572;SDS011;271;51.114;13.780;2023-04-25T04:40:31;22.25;;;6.38;;
572;SDS011;271;51.114;13.780;2023-04-25T04:43:20;18.60;;;5.70;;
572;SDS011;271;51.114;13.780;2023-04-25T04:46:08;21.20;;;6.78;;
572;SDS011;271;51.114;13.780;2023-04-25T04:48:58;20.20;;;7.13;;
572;SDS011;271;51.114;13.780;2023-04-25T04:51:46;21.05;;;7.70;;
572;SDS011;271;51.114;13.780;2023-04-25T04:54:35;20.83;;;6.65;;
572;SDS011;271;51.114;13.780;2023-04-25T04:57:23;19.33;;;5.88;;
572;SDS011;271;51.114;13.780;2023-04-25T05:00:12;24.08;;;7.50;;
572;SDS011;271;51.114;13.780;2023-04-25T05:03:01;21.92;;;7.32;;
572;SDS011;271;51.114;13.780;2023-04-25T05:05:49;21.37;;;7.30;;
572;SDS011;271;51.114;13.780;2023-04-25T05:08:36;20.67;;;6.50;;
572;SDS011;271;51.114;13.780;2023-04-25T05:11:24;18.73;;;5.07;;
572;SDS011;271;51.114;13.780;2023-04-25T05:14:12;20.87;;;5.40;;
572;SDS011;271;51.114;13.780;2023-04-25T05:17:01;20.90;;;5.60;;
572;SDS011;271;51.114;13.780;2023-04-25T05:20:02;21.37;;;4.93;;
572;SDS011;271;51.114;13.780;2023-04-25T05:22:51;22.17;;;5.17;;
572;SDS011;271;51.114;13.780;2023-04-25T05:25:39;18.53;;;5.33;;
572;SDS011;271;51.114;13.780;2023-04-25T05:28:26;19.20;;;4.90;;
572;SDS011;271;51.114;13.780;2023-04-25T05:31:17;19.97;;;4.67;;
572;SDS011;271;51.114;13.780;2023-04-25T05:34:06;18.10;;;4.23;;
572;SDS011;271;51.114;13.780;2023-04-25T05:36:57;19.00;;;4.70;;
572;SDS011;271;51.114;13.780;2023-04-25T05:39:44;19.07;;;4.53;;
572;SDS011;271;51.114;13.780;2023-04-25T05:42:35;20.07;;;4.50;;
572;SDS011;271;51.114;13.780;2023-04-25T05:45:23;19.07;;;4.73;;
572;SDS011;271;51.114;13.780;2023-04-25T05:48:13;20.70;;;4.93;;
572;SDS011;271;51.114;13.780;2023-04-25T05:51:02;17.70;;;4.40;;
572;SDS011;271;51.114;13.780;2023-04-25T05:53:50;20.90;;;4.30;;
572;SDS011;271;51.114;13.780;2023-04-25T05:56:38;19.93;;;4.77;;
572;SDS011;271;51.114;13.780;2023-04-25T05:59:26;18.40;;;3.97;;
572;SDS011;271;51.114;13.780;2023-04-25T06:02:14;17.43;;;3.87;;
572;SDS011;271;51.114;13.780;2023-04-25T06:05:05;18.37;;;3.60;;
572;SDS011;271;51.114;13.780;2023-04-25T06:07:54;17.77;;;3.90;;
572;SDS011;271;51.114;13.780;2023-04-25T06:10:42;17.03;;;3.60;;
572;SDS011;271;51.114;13.780;2023-04-25T06:13:30;17.23;;;4.10;;
572;SDS011;271;51.114;13.780;2023-04-25T06:16:21;18.53;;;4.23;;
572;SDS011;271;51.114;13.780;2023-04-25T06:19:11;19.67;;;4.60;;
572;SDS011;271;51.114;13.780;2023-04-25T06:21:59;18.50;;;4.67;;
572;SDS011;271;51.114;13.780;2023-04-25T06:24:48;17.00;;;3.90;;
572;SDS011;271;51.114;13.780;2023-04-25T06:27:38;17.90;;;4.80;;
572;SDS011;271;51.114;13.780;2023-04-25T06:30:26;15.93;;;3.10;;
572;SDS011;271;51.114;13.780;2023-04-25T06:33:17;16.27;;;3.70;;
572;SDS011;271;51.114;13.780;2023-04-25T06:36:06;15.83;;;3.37;;
572;SDS011;271;51.114;13.780;2023-04-25T06:39:01;17.63;;;3.73;;
572;SDS011;271;51.114;13.780;2023-04-25T06:41:50;17.77;;;4.17;;
572;SDS011;271;51.114;13.780;2023-04-25T06:44:39;16.07;;;3.70;;
572;SDS011;271;51.114;13.780;2023-04-25T06:47:26;18.43;;;3.63;;
572;SDS011;271;51.114;13.780;2023-04-25T06:50:15;19.10;;;3.57;;
572;SDS011;271;51.114;13.780;2023-04-25T06:53:03;18.40;;;3.97;;
572;SDS011;271;51.114;13.780;2023-04-25T06:55:51;17.07;;;3.90;;
572;SDS011;271;51.114;13.780;2023-04-25T06:58:40;17.90;;;3.63;;
572;SDS011;271;51.114;13.780;2023-04-25T07:01:27;19.63;;;3.80;;
572;SDS011;271;51.114;13.780;2023-04-25T07:04:15;16.17;;;3.07;;
572;SDS011;271;51.114;13.780;2023-04-25T07:07:03;16.90;;;3.87;;
572;SDS011;271;51.114;13.780;2023-04-25T07:09:51;16.77;;;3.90;;
572;SDS011;271;51.114;13.780;2023-04-25T07:12:41;18.17;;;3.17;;
572;SDS011;271;51.114;13.780;2023-04-25T07:15:30;16.17;;;3.40;;
572;SDS011;271;51.114;13.780;2023-04-25T07:18:18;16.57;;;3.47;;
572;SDS011;271;51.114;13.780;2023-04-25T07:21:06;19.70;;;3.20;;
572;SDS011;271;51.114;13.780;2023-04-25T07:23:56;16.90;;;3.70;;
572;SDS011;271;51.114;13.780;2023-04-25T07:26:44;16.43;;;3.90;;
572;SDS011;271;51.114;13.780;2023-04-25T07:29:34;18.20;;;4.57;;
572;SDS011;271;51.114;13.780;2023-04-25T07:32:24;17.00;;;3.80;;
572;SDS011;271;51.114;13.780;2023-04-25T07:35:13;16.80;;;3.37;;
572;SDS011;271;51.114;13.780;2023-04-25T07:38:01;16.30;;;3.30;;
572;SDS011;271;51.114;13.780;2023-04-25T07:40:49;18.40;;;4.20;;
572;SDS011;271;51.114;13.780;2023-04-25T07:43:37;16.70;;;3.80;;
572;SDS011;271;51.114;13.780;2023-04-25T07:46:28;15.70;;;3.10;;
572;SDS011;271;51.114;13.780;2023-04-25T07:49:17;15.27;;;3.00;;
572;SDS011;271;51.114;13.780;2023-04-25T07:52:04;16.83;;;3.30;;
572;SDS011;271;51.114;13.780;2023-04-25T07:54:52;16.20;;;3.80;;
572;SDS011;271;51.114;13.780;2023-04-25T07:57:40;16.27;;;3.70;;
572;SDS011;271;51.114;13.780;2023-04-25T08:00:28;16.37;;;3.33;;
572;SDS011;271;51.114;13.780;2023-04-25T08:03:19;15.80;;;3.40;;
572;SDS011;271;51.114;13.780;2023-04-25T08:06:09;17.30;;;3.70;;
572;SDS011;271;51.114;13.780;2023-04-25T08:08:57;16.40;;;3.47;;
572;SDS011;271;51.114;13.780;2023-04-25T08:11:45;17.20;;;3.00;;
572;SDS011;271;51.114;13.780;2023-04-25T08:14:33;18.00;;;2.87;;
572;SDS011;271;51.114;13.780;2023-04-25T08:17:23;17.07;;;4.03;;
572;SDS011;271;51.114;13.780;2023-04-25T08:20:16;16.20;;;3.63;;
572;SDS011;271;51.114;13.780;2023-04-25T08:23:05;18.73;;;4.10;;
572;SDS011;271;51.114;13.780;2023-04-25T08:25:53;17.00;;;2.90;;
572;SDS011;271;51.114;13.780;2023-04-25T08:28:41;16.60;;;3.40;;
572;SDS011;271;51.114;13.780;2023-04-25T08:31:31;18.70;;;3.57;;
572;SDS011;271;51.114;13.780;2023-04-25T08:34:19;19.50;;;3.80;;
572;SDS011;271;51.114;13.780;2023-04-25T08:37:10;17.37;;;3.50;;
572;SDS011;271;51.114;13.780;2023-04-25T08:39:59;15.97;;;3.70;;
572;SDS011;271;51.114;13.780;2023-04-25T08:42:47;18.33;;;4.10;;
572;SDS011;271;51.114;13.780;2023-04-25T08:45:38;16.17;;;2.87;;
572;SDS011;271;51.114;13.780;2023-04-25T08:48:27;17.30;;;4.03;;
572;SDS011;271;51.114;13.780;2023-04-25T08:51:15;17.03;;;3.43;;
572;SDS011;271;51.114;13.780;2023-04-25T08:54:11;17.37;;;4.10;;
572;SDS011;271;51.114;13.780;2023-04-25T08:57:01;18.10;;;4.50;;
572;SDS011;271;51.114;13.780;2023-04-25T08:59:49;18.47;;;4.73;;
572;SDS011;271;51.114;13.780;2023-04-25T09:02:39;17.33;;;3.50;;
572;SDS011;271;51.114;13.780;2023-04-25T09:05:29;18.20;;;3.60;;
572;SDS011;271;51.114;13.780;2023-04-25T09:08:16;19.60;;;4.30;;
572;SDS011;271;51.114;13.780;2023-04-25T09:11:04;19.33;;;4.20;;
572;SDS011;271;51.114;13.780;2023-04-25T09:13:54;17.90;;;3.67;;
572;SDS011;271;51.114;13.780;2023-04-25T09:17:15;19.10;;;4.37;;
572;SDS011;271;51.114;13.780;2023-04-25T09:20:06;16.70;;;3.73;;
572;SDS011;271;51.114;13.780;2023-04-25T09:23:02;15.70;;;3.17;;
572;SDS011;271;51.114;13.780;2023-04-25T09:25:51;15.53;;;3.27;;
572;SDS011;271;51.114;13.780;2023-04-25T09:29:11;17.47;;;2.87;;
572;SDS011;271;51.114;13.780;2023-04-25T09:31:54;17.63;;;4.10;;
572;SDS011;271;51.114;13.780;2023-04-25T09:35:09;16.70;;;3.83;;
572;SDS011;271;51.114;13.780;2023-04-25T09:37:58;16.40;;;3.70;;
572;SDS011;271;51.114;13.780;2023-04-25T09:40:46;17.20;;;3.67;;
572;SDS011;271;51.114;13.780;2023-04-25T09:43:38;19.70;;;4.23;;
572;SDS011;271;51.114;13.780;2023-04-25T09:46:33;16.50;;;3.33;;
572;SDS011;271;51.114;13.780;2023-04-25T09:49:22;17.70;;;3.50;;
572;SDS011;271;51.114;13.780;2023-04-25T09:52:13;18.50;;;3.90;;
572;SDS011;271;51.114;13.780;2023-04-25T09:55:02;17.00;;;4.17;;
572;SDS011;271;51.114;13.780;2023-04-25T09:57:50;16.83;;;3.40;;
572;SDS011;271;51.114;13.780;2023-04-25T10:00:41;17.30;;;3.87;;
572;SDS011;271;51.114;13.780;2023-04-25T10:03:30;18.90;;;3.20;;
572;SDS011;271;51.114;13.780;2023-04-25T10:06:19;15.90;;;2.93;;
572;SDS011;271;51.114;13.780;2023-04-25T10:09:10;17.40;;;3.07;;
572;SDS011;271;51.114;13.780;2023-04-25T10:12:04;17.00;;;3.00;;
572;SDS011;271;51.114;13.780;2023-04-25T10:14:53;16.37;;;2.70;;
572;SDS011;271;51.114;13.780;2023-04-25T10:17:44;16.20;;;3.17;;
572;SDS011;271;51.114;13.780;2023-04-25T10:20:40;16.40;;;3.53;;
572;SDS011;271;51.114;13.780;2023-04-25T10:23:36;20.40;;;3.60;;
572;SDS011;271;51.114;13.780;2023-04-25T10:26:24;17.80;;;2.90;;
572;SDS011;271;51.114;13.780;2023-04-25T10:29:12;17.53;;;3.20;;
572;SDS011;271;51.114;13.780;2023-04-25T10:32:08;16.20;;;3.70;;
572;SDS011;271;51.114;13.780;2023-04-25T10:34:55;17.73;;;3.27;;
572;SDS011;271;51.114;13.780;2023-04-25T10:38:00;19.10;;;4.00;;
572;SDS011;271;51.114;13.780;2023-04-25T10:41:06;17.60;;;3.80;;
572;SDS011;271;51.114;13.780;2023-04-25T10:43:58;16.90;;;3.53;;
572;SDS011;271;51.114;13.780;2023-04-25T10:46:48;16.47;;;3.73;;
572;SDS011;271;51.114;13.780;2023-04-25T10:49:36;16.70;;;3.90;;
572;SDS011;271;51.114;13.780;2023-04-25T10:52:27;17.90;;;4.33;;
572;SDS011;271;51.114;13.780;2023-04-25T10:55:16;18.17;;;4.10;;
572;SDS011;271;51.114;13.780;2023-04-25T10:58:04;19.83;;;4.30;;
572;SDS011;271;51.114;13.780;2023-04-25T11:00:52;18.13;;;4.80;;
572;SDS011;271;51.114;13.780;2023-04-25T11:03:40;19.23;;;5.17;;
572;SDS011;271;51.114;13.780;2023-04-25T11:06:31;20.70;;;4.73;;
572;SDS011;271;51.114;13.780;2023-04-25T11:09:43;17.70;;;5.40;;
572;SDS011;271;51.114;13.780;2023-04-25T11:12:37;22.53;;;5.90;;
572;SDS011;271;51.114;13.780;2023-04-25T11:15:24;19.50;;;5.40;;
572;SDS011;271;51.114;13.780;2023-04-25T11:18:15;18.40;;;5.40;;
572;SDS011;271;51.114;13.780;2023-04-25T11:21:04;18.90;;;5.70;;
572;SDS011;271;51.114;13.780;2023-04-25T11:23:52;17.53;;;4.53;;
572;SDS011;271;51.114;13.780;2023-04-25T11:26:41;21.00;;;4.63;;
572;SDS011;271;51.114;13.780;2023-04-25T11:29:32;18.63;;;4.70;;
572;SDS011;271;51.114;13.780;2023-04-25T11:32:21;20.03;;;4.03;;
572;SDS011;271;51.114;13.780;2023-04-25T11:35:09;19.10;;;3.30;;
572;SDS011;271;51.114;13.780;2023-04-25T11:37:57;15.17;;;2.23;;
572;SDS011;271;51.114;13.780;2023-04-25T11:40:49;16.03;;;2.60;;
572;SDS011;271;51.114;13.780;2023-04-25T11:43:38;19.33;;;2.67;;
572;SDS011;271;51.114;13.780;2023-04-25T11:46:27;15.80;;;2.13;;
572;SDS011;271;51.114;13.780;2023-04-25T11:49:14;16.50;;;2.27;;
572;SDS011;271;51.114;13.780;2023-04-25T11:52:05;17.17;;;2.20;;
572;SDS011;271;51.114;13.780;2023-04-25T11:54:54;15.87;;;2.17;;
572;SDS011;271;51.114;13.780;2023-04-25T11:57:44;18.23;;;2.53;;
572;SDS011;271;51.114;13.780;2023-04-25T12:00:35;15.53;;;2.13;;
572;SDS011;271;51.114;13.780;2023-04-25T12:03:24;15.10;;;2.17;;
572;SDS011;271;51.114;13.780;2023-04-25T12:06:17;16.10;;;2.10;;
572;SDS011;271;51.114;13.780;2023-04-25T12:09:06;15.03;;;1.93;;
572;SDS011;271;51.114;13.780;2023-04-25T12:11:56;17.10;;;2.30;;
572;SDS011;271;51.114;13.780;2023-04-25T12:14:46;20.30;;;2.50;;
572;SDS011;271;51.114;13.780;2023-04-25T12:17:34;15.90;;;2.60;;
572;SDS011;271;51.114;13.780;2023-04-25T12:20:25;19.00;;;2.60;;
572;SDS011;271;51.114;13.780;2023-04-25T12:23:12;16.13;;;2.63;;
572;SDS011;271;51.114;13.780;2023-04-25T12:26:00;16.67;;;3.23;;
572;SDS011;271;51.114;13.780;2023-04-25T12:28:49;16.23;;;2.63;;
572;SDS011;271;51.114;13.780;2023-04-25T12:31:36;19.10;;;3.13;;
572;SDS011;271;51.114;13.780;2023-04-25T12:34:24;18.47;;;3.07;;
572;SDS011;271;51.114;13.780;2023-04-25T12:37:13;19.40;;;2.90;;
572;SDS011;271;51.114;13.780;2023-04-25T12:40:01;22.90;;;3.57;;
572;SDS011;271;51.114;13.780;2023-04-25T12:42:50;18.10;;;2.97;;
572;SDS011;271;51.114;13.780;2023-04-25T12:45:37;16.50;;;2.63;;
572;SDS011;271;51.114;13.780;2023-04-25T12:48:25;18.40;;;4.13;;
572;SDS011;271;51.114;13.780;2023-04-25T12:51:13;21.40;;;4.80;;
572;SDS011;271;51.114;13.780;2023-04-25T12:54:03;17.20;;;2.90;;
572;SDS011;271;51.114;13.780;2023-04-25T12:56:52;19.53;;;3.70;;
572;SDS011;271;51.114;13.780;2023-04-25T12:59:40;21.57;;;4.03;;
572;SDS011;271;51.114;13.780;2023-04-25T13:02:28;21.87;;;4.20;;
572;SDS011;271;51.114;13.780;2023-04-25T13:05:16;18.90;;;3.30;;
572;SDS011;271;51.114;13.780;2023-04-25T13:08:04;17.80;;;3.50;;
572;SDS011;271;51.114;13.780;2023-04-25T13:10:54;19.67;;;4.77;;
572;SDS011;271;51.114;13.780;2023-04-25T13:13:41;21.43;;;4.50;;
572;SDS011;271;51.114;13.780;2023-04-25T13:16:30;20.37;;;3.87;;
572;SDS011;271;51.114;13.780;2023-04-25T13:19:17;21.10;;;4.33;;
572;SDS011;271;51.114;13.780;2023-04-25T13:22:05;21.70;;;4.10;;
572;SDS011;271;51.114;13.780;2023-04-25T13:24:56;18.10;;;4.47;;
572;SDS011;271;51.114;13.780;2023-04-25T13:27:47;27.90;;;4.23;;
572;SDS011;271;51.114;13.780;2023-04-25T13:30:35;18.43;;;4.20;;
572;SDS011;271;51.114;13.780;2023-04-25T13:33:25;18.90;;;4.77;;
572;SDS011;271;51.114;13.780;2023-04-25T13:36:13;26.43;;;4.70;;
572;SDS011;271;51.114;13.780;2023-04-25T13:39:04;19.57;;;4.63;;
572;SDS011;271;51.114;13.780;2023-04-25T13:41:52;19.00;;;3.63;;
572;SDS011;271;51.114;13.780;2023-04-25T13:44:41;21.07;;;4.50;;
572;SDS011;271;51.114;13.780;2023-04-25T13:47:29;19.17;;;3.90;;
572;SDS011;271;51.114;13.780;2023-04-25T13:50:20;19.93;;;4.37;;
572;SDS011;271;51.114;13.780;2023-04-25T13:53:07;17.60;;;3.50;;
572;SDS011;271;51.114;13.780;2023-04-25T13:55:55;19.60;;;3.83;;
572;SDS011;271;51.114;13.780;2023-04-25T13:58:43;19.27;;;3.70;;
572;SDS011;271;51.114;13.780;2023-04-25T14:01:35;21.00;;;3.83;;
572;SDS011;271;51.114;13.780;2023-04-25T14:04:23;18.80;;;4.53;;
572;SDS011;271;51.114;13.780;2023-04-25T14:07:12;18.80;;;4.20;;
572;SDS011;271;51.114;13.780;2023-04-25T14:10:01;21.60;;;4.10;;
572;SDS011;271;51.114;13.780;2023-04-25T14:12:50;18.20;;;3.90;;
572;SDS011;271;51.114;13.780;2023-04-25T14:15:38;21.47;;;4.50;;
572;SDS011;271;51.114;13.780;2023-04-25T14:18:30;18.37;;;4.30;;
572;SDS011;271;51.114;13.780;2023-04-25T14:21:18;18.67;;;4.00;;
572;SDS011;271;51.114;13.780;2023-04-25T14:24:06;20.83;;;4.73;;
572;SDS011;271;51.114;13.780;2023-04-25T14:26:55;19.50;;;4.33;;
572;SDS011;271;51.114;13.780;2023-04-25T14:29:43;18.83;;;3.90;;
572;SDS011;271;51.114;13.780;2023-04-25T14:32:30;18.90;;;4.00;;
572;SDS011;271;51.114;13.780;2023-04-25T14:35:23;21.37;;;3.80;;
572;SDS011;271;51.114;13.780;2023-04-25T14:38:10;24.40;;;4.57;;
572;SDS011;271;51.114;13.780;2023-04-25T14:41:23;20.00;;;3.77;;
572;SDS011;271;51.114;13.780;2023-04-25T14:44:23;19.03;;;3.73;;
572;SDS011;271;51.114;13.780;2023-04-25T14:47:11;21.57;;;4.13;;
572;SDS011;271;51.114;13.780;2023-04-25T14:50:01;17.80;;;4.73;;
572;SDS011;271;51.114;13.780;2023-04-25T14:52:51;19.57;;;4.60;;
572;SDS011;271;51.114;13.780;2023-04-25T14:55:40;21.10;;;4.30;;
572;SDS011;271;51.114;13.780;2023-04-25T14:58:28;21.60;;;4.20;;
572;SDS011;271;51.114;13.780;2023-04-25T15:01:16;19.40;;;4.23;;
572;SDS011;271;51.114;13.780;2023-04-25T15:04:06;18.37;;;4.20;;
572;SDS011;271;51.114;13.780;2023-04-25T15:06:53;19.40;;;3.67;;
572;SDS011;271;51.114;13.780;2023-04-25T15:09:43;18.43;;;3.50;;
572;SDS011;271;51.114;13.780;2023-04-25T15:12:34;18.63;;;2.87;;
572;SDS011;271;51.114;13.780;2023-04-25T15:15:21;18.60;;;3.10;;
572;SDS011;271;51.114;13.780;2023-04-25T15:18:09;17.00;;;2.70;;
572;SDS011;271;51.114;13.780;2023-04-25T15:20:57;17.80;;;2.70;;
572;SDS011;271;51.114;13.780;2023-04-25T15:23:47;22.70;;;2.57;;
572;SDS011;271;51.114;13.780;2023-04-25T15:26:37;18.43;;;2.37;;
572;SDS011;271;51.114;13.780;2023-04-25T15:29:25;16.40;;;2.53;;
572;SDS011;271;51.114;13.780;2023-04-25T15:32:13;16.57;;;2.77;;
572;SDS011;271;51.114;13.780;2023-04-25T15:35:03;19.20;;;2.63;;
572;SDS011;271;51.114;13.780;2023-04-25T15:37:52;17.67;;;2.57;;
572;SDS011;271;51.114;13.780;2023-04-25T15:40:43;16.87;;;2.33;;
572;SDS011;271;51.114;13.780;2023-04-25T15:43:32;16.33;;;2.07;;
572;SDS011;271;51.114;13.780;2023-04-25T15:46:23;17.30;;;2.67;;
572;SDS011;271;51.114;13.780;2023-04-25T15:49:10;17.90;;;2.33;;
572;SDS011;271;51.114;13.780;2023-04-25T15:51:58;17.17;;;2.20;;
572;SDS011;271;51.114;13.780;2023-04-25T15:54:46;17.50;;;2.70;;
572;SDS011;271;51.114;13.780;2023-04-25T15:57:35;16.60;;;3.20;;
572;SDS011;271;51.114;13.780;2023-04-25T16:00:25;17.97;;;2.60;;
572;SDS011;271;51.114;13.780;2023-04-25T16:03:13;20.33;;;2.93;;
572;SDS011;271;51.114;13.780;2023-04-25T16:06:01;18.07;;;2.87;;
572;SDS011;271;51.114;13.780;2023-04-25T16:08:52;17.20;;;2.77;;
572;SDS011;271;51.114;13.780;2023-04-25T16:11:40;18.07;;;2.77;;
572;SDS011;271;51.114;13.780;2023-04-25T16:14:31;16.83;;;2.40;;
572;SDS011;271;51.114;13.780;2023-04-25T16:17:20;18.43;;;2.70;;
572;SDS011;271;51.114;13.780;2023-04-25T16:20:08;16.73;;;3.23;;
572;SDS011;271;51.114;13.780;2023-04-25T16:22:58;15.43;;;2.43;;
572;SDS011;271;51.114;13.780;2023-04-25T16:25:46;18.63;;;2.10;;
572;SDS011;271;51.114;13.780;2023-04-25T16:28:35;15.30;;;2.30;;
572;SDS011;271;51.114;13.780;2023-04-25T16:31:23;16.93;;;2.37;;
572;SDS011;271;51.114;13.780;2023-04-25T16:34:12;14.80;;;2.30;;
572;SDS011;271;51.114;13.780;2023-04-25T16:37:00;17.10;;;2.47;;
572;SDS011;271;51.114;13.780;2023-04-25T16:39:48;19.13;;;2.30;;
572;SDS011;271;51.114;13.780;2023-04-25T16:42:38;15.60;;;1.80;;
572;SDS011;271;51.114;13.780;2023-04-25T16:45:26;17.63;;;2.03;;
572;SDS011;271;51.114;13.780;2023-04-25T16:48:16;17.63;;;2.50;;
572;SDS011;271;51.114;13.780;2023-04-25T16:51:07;16.03;;;2.13;;
572;SDS011;271;51.114;13.780;2023-04-25T16:53:54;16.13;;;2.20;;
572;SDS011;271;51.114;13.780;2023-04-25T16:56:42;16.07;;;2.03;;
572;SDS011;271;51.114;13.780;2023-04-25T16:59:33;17.27;;;2.00;;
572;SDS011;271;51.114;13.780;2023-04-25T17:02:20;18.90;;;2.20;;
572;SDS011;271;51.114;13.780;2023-04-25T17:05:11;18.70;;;2.17;;
572;SDS011;271;51.114;13.780;2023-04-25T17:08:00;16.33;;;2.20;;
572;SDS011;271;51.114;13.780;2023-04-25T17:10:48;22.00;;;2.63;;
572;SDS011;271;51.114;13.780;2023-04-25T17:13:36;19.70;;;2.73;;
572;SDS011;271;51.114;13.780;2023-04-25T17:16:33;18.70;;;2.40;;
572;SDS011;271;51.114;13.780;2023-04-25T17:19:21;15.20;;;2.23;;
572;SDS011;271;51.114;13.780;2023-04-25T17:22:08;16.53;;;2.10;;
572;SDS011;271;51.114;13.780;2023-04-25T17:24:58;16.57;;;2.13;;
572;SDS011;271;51.114;13.780;2023-04-25T17:27:45;16.67;;;1.95;;
572;SDS011;271;51.114;13.780;2023-04-25T17:30:33;18.70;;;2.30;;